AirNav   Air Wisconsin pilot careers
 
 1142 users online  

8M9 Providence-Webster County Airport
Providence, Kentucky, USA

GOING TO PROVIDENCE?


FAA INFORMATION EFFECTIVE 01 FEBRUARY 2018

Location

FAA Identifier: 8M9
Lat/Long: 37-25-26.8000N / 087-44-09.5000W
37-25.446667N / 087-44.158333W
37.4241111 / -87.7359722
(estimated)
Elevation: 395 ft. / 120 m (estimated)
Variation: 00E (1985)
From city: 2 miles NE of PROVIDENCE, KY
Time zone: UTC -6 (UTC -5 during Daylight Saving Time)
Zip code: 42450

Airport Operations

Airport use: Open to the public
Activation date: 09/1975
Control tower: no
ARTCC: INDIANAPOLIS CENTER
FSS: LOUISVILLE FLIGHT SERVICE STATION
NOTAMs facility: LOU (NOTAM-D service available)
Attendance: UNATNDD
Wind indicator: yes, LCTD INSIDE OBJECT FREE AREA.
Segmented circle: yes
Lights: ACTVT MIRL RY 16/34 - CTAF.
Beacon: white-green (lighted land airport)
Operates sunset to sunrise.

Airport Communications

CTAF/UNICOM: 122.8
WX AWOS-3 at TWT (13 nm NW): 118.775 (270-333-2967)
WX AWOS-3 at 2I0 (17 nm E): 126.475 (270-821-4554)
WX AWOS-3P at 5M9 (19 nm W): 118.15 (270-965-4877)

Nearby radio navigation aids

VOR radial/distance  VOR name  Freq  Var
CCTr277/22.6CENTRAL CITY VORTAC109.8001W
PXVr175/30.3POCKET CITY VORTAC113.3003E
OWBr239/33.2OWENSBORO VOR/DME108.6004W

Airport Services

Parking: hangars and tiedowns
Airframe service: NONE
Powerplant service: NONE
Bottled oxygen: NONE
Bulk oxygen: NONE

Runway Information

Runway 16/34

Dimensions: 3800 x 70 ft. / 1158 x 21 m
Surface: asphalt, in fair condition
ROUGH RY SURFACE.
Weight bearing capacity: 
Single wheel: 7.5
Runway edge lights: medium intensity
Gradient: S.
RUNWAY 16  RUNWAY 34
Latitude: 37-25.748978N37-25.145377N
Longitude: 087-44.262615W087-44.053033W
Elevation: 377.0 ft.395.0 ft.
Gradient: 0.5% UP
Traffic pattern: leftleft
Runway heading: 165345
Markings: basic, in good conditionbasic, in good condition
Obstructions: none91 ft. trees, 1024 ft. from runway, 207 ft. left of centerline, 9:1 slope to clear

Airport Ownership and Management from official FAA records

Ownership: Publicly-owned
Owner: PROVIDENCE/WEBSTER CO ARPT BOARD
650 PEAR TREE LANE
MANITOU, KY 42436
Phone (270) 836-2825
AIR BOARD CHAIRMAN, BOB MORRISON.
Manager: PROVIDENCE-WEBSTER CO ARPT BOARD
611 AIRPORT ROAD
MANITOU, KY 42450
Phone (270) 836-2825
LOWELL SHARKEY AIR BOARD SEC-TREAS

Airport Operational Statistics

Aircraft based on the field: 5
Single engine airplanes: 4
Ultralights: 1
    
Aircraft operations: avg 115/week *
50% local general aviation
42% transient general aviation
5% military
3% air taxi
* for 12-month period ending 08 November 2016

Additional Remarks

POLES, PLINE & TREES VIOLATE 7:1 ZONE BOTH SIDES OF RWY.
ULTRALIGHT ACTVTY ON AND INVOF ARPT.

Instrument Procedures

There are no published instrument procedures at 8M9.

Some nearby airports with instrument procedures:

KTWT - Sturgis Municipal Airport (13 nm NW)
2I0 - Madisonville Regional Airport (17 nm E)
5M9 - Marion-Crittenden County Airport (19 nm W)
2M0 - Princeton-Caldwell County Airport (19 nm S)
KEHR - Henderson City-County Airport (23 nm N)
 
Loc | Ops | Rwys | IFR | FBO | Links
Com | Nav | Svcs | Stats | Notes

AirNav Hotels Sweepstakes
 
Area around 8M9 (Providence-Webster County Airport)
 
Road maps at: MapQuest Bing Google
 
Aerial photo
WARNING: Photo may not be current or correct
Aerial photo of 8M9 (Providence-Webster County Airport)
Photo courtesy of AirNav, LLC
Photo taken 29-Apr-2011
looking west.

Do you have a better or more recent aerial photo of Providence-Webster County Airport that you would like to share? If so, please send us your photo.

 
Sectional chart

 
Airport distance calculator
Flying to Providence-Webster County Airport? Find the distance to fly.

From to 8M9

Sunrise and sunset
Times for 25-Feb-2018
 Local
(UTC-6)
 Zulu
(UTC)
Morning civil twilight06:0212:02
Sunrise06:2912:29
Sunset17:3923:39
Evening civil twilight18:0600:06

Current date and time
Zulu (UTC)  25-Feb-2018 22:45:28
Local (UTC-6)  25-Feb-2018 16:45:28
 
METAR
K2I0 
17nm E 
252235Z AUTO 29003KT 10SM CLR 11/04 A3014 RMK AO2 T01070042
K5M9 
19nm W 
252235Z AUTO 00000KT 10SM CLR 09/M02 A3012 RMK AO2 T00921020
KEHR 
24nm N 
252156Z AUTO 26006KT 10SM CLR 09/M02 A3013 RMK AO2 SLP217 T00941022
KOWB 
32nm NE 
252156Z 25005KT 10SM CLR 09/01 A3013 RMK AO2 SLP217 T00940011
TAF
KOWB 
32nm NE 
251720Z 2518/2618 28010KT P6SM BKN150 FM260000 VRB02KT P6SM SCT100 BKN150 FM261500 06005KT P6SM SCT150 BKN250
KEVV 
39nm N 
251720Z 2518/2618 26009KT P6SM BKN250 FM260000 VRB02KT P6SM BKN150 FM261500 06004KT P6SM SCT150 BKN250
NOTAMs
Click for the latest NOTAMs
NOTAMs are issued by the DoD/FAA and will open in a separate window not controlled by AirNav.

 

 
 

Would you like to see your business listed on this page?

 If your business provides an interesting product or service to pilots, flight crews, aircraft, or users of the Providence-Webster County Airport, you should consider listing it here.  To start the listing process, click on the button below
 
Add a business
 

Other Pages about Providence-Webster County Airport

Update a link
 
Copyright © AirNav, LLC. All rights reserved. Privacy Policy  Contact